createdAt,value
2022-10-20T00:01:18.461Z,19.38
2022-10-20T00:03:46.062Z,18.73
2022-10-20T00:06:15.972Z,17.73
2022-10-20T00:08:43.583Z,21.35
2022-10-20T00:11:12.116Z,26.55
2022-10-20T00:13:39.767Z,20.83
2022-10-20T00:16:07.234Z,19.30
2022-10-20T00:18:34.254Z,18.02
2022-10-20T00:21:04.404Z,23.63
2022-10-20T00:23:31.098Z,21.25
2022-10-20T00:26:21.746Z,22.63
2022-10-20T00:28:49.515Z,22.88
2022-10-20T00:31:17.291Z,22.90
2022-10-20T00:33:44.121Z,24.13
2022-10-20T00:36:13.822Z,23.27
2022-10-20T00:38:40.968Z,20.10
2022-10-20T00:41:08.134Z,25.80
2022-10-20T00:43:51.605Z,21.05
2022-10-20T00:46:42.461Z,20.35
2022-10-20T00:49:23.082Z,19.95
2022-10-20T00:51:52.075Z,19.42
2022-10-20T00:54:26.389Z,22.90
2022-10-20T00:56:55.694Z,26.30
2022-10-20T00:59:27.546Z,26.55
2022-10-20T01:04:22.686Z,25.30
2022-10-20T01:06:49.700Z,23.35
2022-10-20T01:09:16.607Z,26.48
2022-10-20T01:12:08.451Z,24.08
2022-10-20T01:14:45.110Z,25.05
2022-10-20T01:17:23.761Z,23.13
2022-10-20T01:20:12.233Z,21.80
2022-10-20T01:23:00.998Z,22.65
2022-10-20T01:26:24.677Z,23.17
2022-10-20T01:29:06.279Z,22.85
2022-10-20T01:31:38.621Z,23.08
2022-10-20T01:34:11.096Z,27.08
2022-10-20T01:36:53.167Z,24.27
2022-10-20T01:39:28.336Z,22.38
2022-10-20T01:42:02.162Z,20.88
2022-10-20T01:44:31.020Z,23.77
2022-10-20T01:46:59.026Z,23.65
2022-10-20T01:49:26.340Z,21.33
2022-10-20T01:51:53.364Z,25.85
2022-10-20T01:54:26.150Z,22.00
2022-10-20T01:57:14.403Z,20.67
2022-10-20T02:00:01.227Z,26.27
2022-10-20T02:02:53.076Z,20.63
2022-10-20T02:05:30.265Z,22.17
2022-10-20T02:08:24.241Z,21.60
2022-10-20T02:10:54.503Z,19.33
2022-10-20T02:13:21.830Z,23.77
2022-10-20T02:15:55.783Z,21.90
2022-10-20T02:18:30.694Z,22.35
2022-10-20T02:20:59.720Z,18.77
2022-10-20T02:23:27.691Z,21.48
2022-10-20T02:25:55.715Z,17.45
2022-10-20T02:28:23.224Z,22.25
2022-10-20T02:30:50.015Z,23.65
2022-10-20T02:33:17.545Z,21.77
2022-10-20T02:35:54.936Z,20.17
2022-10-20T02:38:22.061Z,22.85
2022-10-20T02:40:48.815Z,23.65
2022-10-20T02:43:15.565Z,23.60
2022-10-20T02:45:42.333Z,21.77
2022-10-20T02:48:11.729Z,21.27
2022-10-20T02:50:38.535Z,26.02
2022-10-20T02:53:06.161Z,22.63
2022-10-20T02:55:32.815Z,17.67
2022-10-20T02:57:59.768Z,19.73
2022-10-20T03:00:30.837Z,17.73
2022-10-20T03:02:57.645Z,18.27
2022-10-20T03:05:24.540Z,21.52
2022-10-20T03:07:51.251Z,23.23
2022-10-20T03:10:18.059Z,23.77
2022-10-20T03:12:44.836Z,20.85
2022-10-20T03:15:11.733Z,17.55
2022-10-20T03:17:38.924Z,20.67
2022-10-20T03:20:07.703Z,19.27
2022-10-20T03:22:34.396Z,21.02
2022-10-20T03:25:01.127Z,19.70
2022-10-20T03:27:27.955Z,20.52
2022-10-20T03:29:54.685Z,17.60
2022-10-20T03:32:21.406Z,24.85
2022-10-20T03:34:48.101Z,19.48
2022-10-20T03:37:14.747Z,21.17
2022-10-20T03:39:41.551Z,22.55
2022-10-20T03:42:08.413Z,19.70
2022-10-20T03:44:35.003Z,19.92
2022-10-20T03:47:01.762Z,18.55
2022-10-20T03:49:28.503Z,17.40
2022-10-20T03:51:55.179Z,16.95
2022-10-20T03:54:21.914Z,19.58
2022-10-20T03:56:48.701Z,16.45
2022-10-20T03:59:15.402Z,19.83
2022-10-20T04:01:45.423Z,22.83
2022-10-20T04:04:12.710Z,19.13
2022-10-20T04:06:39.567Z,18.90
2022-10-20T04:09:06.648Z,19.65
2022-10-20T04:11:33.657Z,18.50
2022-10-20T04:14:00.326Z,19.65
2022-10-20T04:16:27.080Z,14.93
2022-10-20T04:18:54.210Z,18.52
2022-10-20T04:21:21.212Z,18.63
2022-10-20T04:23:48.715Z,19.88
2022-10-20T04:26:16.366Z,18.25
2022-10-20T04:28:43.432Z,21.13
2022-10-20T04:31:10.276Z,19.30
2022-10-20T04:33:37.101Z,17.10
2022-10-20T04:36:10.564Z,14.77
2022-10-20T04:38:37.326Z,18.38
2022-10-20T04:41:05.324Z,17.70
2022-10-20T04:43:33.173Z,20.17
2022-10-20T04:46:08.129Z,17.30
2022-10-20T04:48:36.924Z,15.35
2022-10-20T04:51:06.680Z,18.85
2022-10-20T04:53:33.716Z,23.60
2022-10-20T04:56:00.656Z,20.23
2022-10-20T04:58:27.700Z,14.95
2022-10-20T05:00:54.442Z,18.60
2022-10-20T05:03:21.184Z,14.20
2022-10-20T05:05:48.509Z,16.92
2022-10-20T05:08:15.250Z,13.98
2022-10-20T05:10:41.929Z,18.98
2022-10-20T05:13:08.659Z,13.88
2022-10-20T05:15:35.360Z,13.07
2022-10-20T05:18:02.094Z,17.77
2022-10-20T05:20:31.018Z,17.80
2022-10-20T05:23:00.348Z,16.48
2022-10-20T05:25:42.549Z,16.20
2022-10-20T05:28:09.355Z,14.27
2022-10-20T05:30:37.454Z,20.38
2022-10-20T05:33:04.669Z,15.40
2022-10-20T05:35:31.606Z,18.38
2022-10-20T05:37:58.470Z,14.05
2022-10-20T05:40:25.205Z,15.73
2022-10-20T05:42:51.983Z,18.95
2022-10-20T05:45:18.632Z,13.73
2022-10-20T05:47:45.287Z,18.35
2022-10-20T05:50:12.913Z,16.63
2022-10-20T05:52:39.761Z,13.52
2022-10-20T05:55:07.183Z,17.42
2022-10-20T05:57:33.893Z,14.13
2022-10-20T06:00:00.533Z,17.52
2022-10-20T06:02:27.168Z,12.93
2022-10-20T06:04:53.813Z,13.35
2022-10-20T06:07:20.666Z,16.35
2022-10-20T06:09:47.446Z,20.00
2022-10-20T06:12:14.229Z,17.80
2022-10-20T06:14:40.938Z,18.70
2022-10-20T06:17:07.767Z,13.77
2022-10-20T06:19:34.485Z,19.00
2022-10-20T06:22:04.045Z,16.40
2022-10-20T06:24:34.064Z,19.33
2022-10-20T06:27:00.949Z,19.75
2022-10-20T06:29:27.737Z,20.15
2022-10-20T06:31:55.061Z,19.30
2022-10-20T06:34:24.001Z,19.17
2022-10-20T06:36:51.594Z,19.42
2022-10-20T06:39:21.491Z,17.60
2022-10-20T06:41:50.555Z,19.70
2022-10-20T06:44:23.867Z,14.27
2022-10-20T06:49:21.375Z,18.17
2022-10-20T06:51:48.241Z,20.02
2022-10-20T06:54:15.136Z,18.10
2022-10-20T06:56:41.877Z,16.55
2022-10-20T06:59:08.859Z,14.77
2022-10-20T07:01:37.841Z,14.25
2022-10-20T07:04:13.174Z,18.35
2022-10-20T07:06:42.146Z,15.63
2022-10-20T07:09:14.113Z,15.88
2022-10-20T07:11:41.272Z,14.15
2022-10-20T07:14:08.139Z,14.35
2022-10-20T07:16:35.197Z,16.80
2022-10-20T07:19:04.144Z,17.80
2022-10-20T07:21:35.653Z,14.95
2022-10-20T07:24:06.229Z,16.15
2022-10-20T07:26:36.164Z,16.42
2022-10-20T07:29:04.269Z,17.95
2022-10-20T07:31:43.394Z,15.32
2022-10-20T07:34:24.376Z,15.65
2022-10-20T07:36:52.765Z,20.30
2022-10-20T07:39:19.553Z,15.98
2022-10-20T07:41:47.859Z,15.43
2022-10-20T07:44:15.390Z,16.48
2022-10-20T07:46:42.156Z,17.98
2022-10-20T07:49:42.471Z,17.08
2022-10-20T07:51:56.005Z,15.70
2022-10-20T07:54:22.696Z,19.17
2022-10-20T07:56:49.766Z,19.40
2022-10-20T07:59:16.851Z,18.75
2022-10-20T08:01:44.035Z,15.05
2022-10-20T08:04:11.179Z,17.52
2022-10-20T08:06:39.251Z,14.95
2022-10-20T08:09:06.445Z,17.60
2022-10-20T08:11:33.411Z,17.63
2022-10-20T08:14:00.082Z,20.55
2022-10-20T08:16:29.774Z,15.70
2022-10-20T08:19:03.514Z,16.92
2022-10-20T08:21:30.237Z,19.05
2022-10-20T08:23:56.976Z,15.10
2022-10-20T08:26:26.569Z,14.98
2022-10-20T08:28:55.021Z,13.40
2022-10-20T08:31:22.380Z,15.30
2022-10-20T08:33:52.695Z,15.18
2022-10-20T08:36:20.378Z,17.40
2022-10-20T08:38:47.226Z,17.92
2022-10-20T08:41:20.595Z,26.00
2022-10-20T08:43:49.814Z,16.20
2022-10-20T08:48:50.725Z,21.65
2022-10-20T08:51:23.338Z,17.45
2022-10-20T08:53:53.496Z,19.85
2022-10-20T08:56:25.448Z,17.75
2022-10-20T08:58:52.686Z,18.45
2022-10-20T09:01:26.211Z,17.77
2022-10-20T09:04:00.159Z,14.43
2022-10-20T09:06:26.847Z,13.70
2022-10-20T09:08:55.091Z,18.20
2022-10-20T09:11:27.313Z,16.67
2022-10-20T09:13:54.423Z,18.10
2022-10-20T09:16:41.669Z,18.05
2022-10-20T09:19:21.183Z,16.42
2022-10-20T09:21:53.210Z,19.73
2022-10-20T09:24:22.091Z,18.20
2022-10-20T09:26:58.815Z,15.85
2022-10-20T09:29:37.988Z,20.40
2022-10-20T09:32:45.020Z,14.68
2022-10-20T09:35:18.801Z,18.25
2022-10-20T09:38:16.514Z,17.82
2022-10-20T09:40:46.353Z,15.77
2022-10-20T09:43:18.167Z,17.75
2022-10-20T09:45:54.714Z,16.33
2022-10-20T09:48:25.710Z,21.63
2022-10-20T09:50:58.571Z,13.00
2022-10-20T09:53:47.823Z,14.30
2022-10-20T09:56:42.333Z,16.65
2022-10-20T09:59:40.381Z,20.42
2022-10-20T10:02:16.224Z,21.48
2022-10-20T10:04:46.003Z,17.83
2022-10-20T10:07:22.032Z,18.98
2022-10-20T10:10:23.488Z,16.67
2022-10-20T10:12:55.569Z,14.30
2022-10-20T10:15:30.287Z,19.20
2022-10-20T10:17:57.530Z,14.48
2022-10-20T10:20:33.901Z,28.88
2022-10-20T10:23:27.619Z,17.45
2022-10-20T10:25:59.201Z,16.20
2022-10-20T10:28:36.625Z,25.75
2022-10-20T10:31:10.742Z,17.80
2022-10-20T10:33:37.466Z,15.25
2022-10-20T10:36:13.521Z,17.38
2022-10-20T10:38:40.434Z,18.15
2022-10-20T10:41:15.769Z,16.13
2022-10-20T10:43:57.432Z,21.85
2022-10-20T10:47:00.352Z,19.38
2022-10-20T10:49:53.417Z,19.20
2022-10-20T10:52:47.279Z,17.73
2022-10-20T10:55:47.203Z,20.33
2022-10-20T10:58:30.011Z,23.00
2022-10-20T11:01:03.033Z,17.10
2022-10-20T11:04:03.861Z,16.80
2022-10-20T11:06:33.427Z,15.43
2022-10-20T11:09:33.013Z,15.30
2022-10-20T11:12:38.101Z,25.02
2022-10-20T11:15:44.125Z,23.45
2022-10-20T11:18:38.438Z,22.07
2022-10-20T11:21:23.474Z,21.73
2022-10-20T11:24:15.119Z,20.38
2022-10-20T11:26:45.352Z,21.67
2022-10-20T11:29:20.264Z,21.17
2022-10-20T11:32:10.615Z,19.55
2022-10-20T11:35:02.260Z,21.85
2022-10-20T11:37:51.458Z,18.80
2022-10-20T11:40:29.842Z,21.52
2022-10-20T11:43:20.740Z,20.92
2022-10-20T11:46:04.962Z,20.52
2022-10-20T11:48:35.004Z,21.92
2022-10-20T11:51:01.696Z,23.60
2022-10-20T11:53:50.208Z,22.10
2022-10-20T11:56:25.654Z,23.95
2022-10-20T11:59:12.567Z,20.85
2022-10-20T12:02:19.077Z,29.23
2022-10-20T12:05:36.795Z,24.80
2022-10-20T12:08:29.774Z,27.27
2022-10-20T12:11:17.634Z,25.80
2022-10-20T12:14:02.923Z,29.40
2022-10-20T12:16:54.234Z,28.05
2022-10-20T12:19:35.178Z,36.47
2022-10-20T12:22:06.556Z,29.48
2022-10-20T12:24:41.724Z,27.83
2022-10-20T12:27:08.432Z,25.92
2022-10-20T12:29:35.164Z,30.80
2022-10-20T12:32:36.156Z,25.70
2022-10-20T12:35:23.009Z,25.23
2022-10-20T12:38:03.842Z,27.52
2022-10-20T12:40:34.637Z,25.65
2022-10-20T12:43:01.362Z,25.23
2022-10-20T12:45:37.091Z,29.15
2022-10-20T12:48:06.500Z,25.77
2022-10-20T12:50:44.595Z,28.00
2022-10-20T12:53:17.810Z,24.00
2022-10-20T12:56:19.900Z,25.65
2022-10-20T13:02:09.624Z,26.25
2022-10-20T13:04:57.734Z,23.98
2022-10-20T13:07:46.093Z,21.52
2022-10-20T13:10:30.792Z,29.38
2022-10-20T13:13:03.690Z,23.73
2022-10-20T13:15:36.514Z,22.85
2022-10-20T13:18:07.635Z,25.35
2022-10-20T13:20:40.465Z,25.77
2022-10-20T13:23:13.802Z,28.83
2022-10-20T13:25:44.346Z,22.35
2022-10-20T13:28:13.964Z,23.75
2022-10-20T13:30:55.673Z,20.55
2022-10-20T13:34:02.117Z,23.27
2022-10-20T13:36:32.473Z,28.88
2022-10-20T13:39:15.185Z,32.45
2022-10-20T13:42:22.992Z,31.05
2022-10-20T13:45:13.222Z,27.35
2022-10-20T13:47:59.317Z,29.00
2022-10-20T13:50:36.363Z,29.77
2022-10-20T13:53:11.289Z,21.83
2022-10-20T13:56:04.807Z,27.15
2022-10-20T13:58:31.646Z,27.20
2022-10-20T14:01:06.296Z,24.05
2022-10-20T14:03:44.141Z,25.95
2022-10-20T14:06:34.572Z,26.45
2022-10-20T14:09:30.903Z,27.48
2022-10-20T14:12:05.263Z,27.35
2022-10-20T14:14:33.009Z,24.35
2022-10-20T14:17:05.960Z,26.85
2022-10-20T14:19:33.862Z,25.35
2022-10-20T14:22:15.979Z,30.38
2022-10-20T14:24:45.623Z,24.95
2022-10-20T14:27:33.021Z,23.35
2022-10-20T14:30:04.073Z,22.33
2022-10-20T14:32:32.976Z,20.70
2022-10-20T14:35:01.280Z,21.08
2022-10-20T14:37:32.315Z,25.02
2022-10-20T14:40:07.758Z,21.80
2022-10-20T14:42:35.584Z,25.83
2022-10-20T14:45:05.042Z,26.50
2022-10-20T14:47:38.749Z,23.23
2022-10-20T14:50:06.187Z,26.77
2022-10-20T14:52:38.583Z,23.27
2022-10-20T14:55:30.040Z,25.00
2022-10-20T14:57:56.709Z,23.83
2022-10-20T15:00:28.726Z,24.15
2022-10-20T15:02:58.519Z,21.45
2022-10-20T15:05:36.468Z,26.98
2022-10-20T15:08:29.216Z,21.35
2022-10-20T15:10:56.981Z,21.58
2022-10-20T15:13:28.008Z,21.13
2022-10-20T15:15:56.577Z,24.98
2022-10-20T15:18:24.745Z,21.70
2022-10-20T15:20:52.650Z,26.63
2022-10-20T15:23:26.499Z,23.55
2022-10-20T15:25:55.637Z,25.35
2022-10-20T15:28:31.101Z,29.85
2022-10-20T15:30:59.471Z,24.13
2022-10-20T15:33:26.436Z,22.13
2022-10-20T15:35:53.419Z,23.90
2022-10-20T15:38:20.547Z,27.33
2022-10-20T15:40:47.865Z,30.33
2022-10-20T15:43:17.471Z,25.98
2022-10-20T15:45:54.588Z,26.40
2022-10-20T15:48:25.922Z,21.33
2022-10-20T15:50:54.250Z,27.70
2022-10-20T15:53:30.370Z,27.65
2022-10-20T15:55:57.274Z,24.70
2022-10-20T15:58:23.942Z,21.98
2022-10-20T16:00:50.703Z,24.38
2022-10-20T16:03:18.815Z,26.80
2022-10-20T16:05:47.068Z,21.38
2022-10-20T16:10:43.494Z,27.17
2022-10-20T16:13:11.424Z,27.38
2022-10-20T16:15:38.374Z,33.92
2022-10-20T16:18:07.338Z,24.83
2022-10-20T16:20:36.399Z,22.85
2022-10-20T16:23:03.206Z,24.95
2022-10-20T16:25:29.933Z,32.10
2022-10-20T16:27:56.613Z,24.65
2022-10-20T16:30:23.296Z,28.63
2022-10-20T16:32:50.028Z,30.15
2022-10-20T16:35:16.746Z,22.20
2022-10-20T16:37:44.036Z,27.48
2022-10-20T16:40:10.818Z,23.10
2022-10-20T16:42:37.570Z,27.55
2022-10-20T16:45:05.609Z,24.23
2022-10-20T16:47:32.346Z,25.83
2022-10-20T16:49:59.108Z,27.88
2022-10-20T16:52:25.822Z,27.92
2022-10-20T16:54:52.576Z,24.70
2022-10-20T16:57:19.316Z,34.92
2022-10-20T16:59:50.008Z,28.00
2022-10-20T17:02:18.374Z,28.48
2022-10-20T17:04:49.342Z,29.92
2022-10-20T17:07:17.021Z,31.83
2022-10-20T17:09:43.716Z,30.00
2022-10-20T17:12:10.538Z,32.15
2022-10-20T17:14:38.127Z,26.20
2022-10-20T17:17:04.769Z,32.13
2022-10-20T17:19:31.478Z,33.55
2022-10-20T17:21:58.199Z,33.47
2022-10-20T17:24:25.154Z,34.00
2022-10-20T17:26:51.921Z,33.50
2022-10-20T17:29:22.297Z,27.60
2022-10-20T17:31:52.060Z,24.55
2022-10-20T17:34:18.842Z,26.77
2022-10-20T17:36:45.504Z,30.70
2022-10-20T17:39:14.382Z,29.40
2022-10-20T17:41:42.563Z,30.13
2022-10-20T17:44:09.844Z,28.23
2022-10-20T17:46:36.862Z,34.50
2022-10-20T17:49:03.610Z,27.90
2022-10-20T17:51:33.607Z,27.75
2022-10-20T17:54:02.698Z,27.80
2022-10-20T17:56:40.036Z,26.88
2022-10-20T17:59:08.518Z,29.25
2022-10-20T18:01:40.563Z,32.45
2022-10-20T18:04:13.191Z,35.85
2022-10-20T18:06:40.958Z,32.22
2022-10-20T18:09:13.544Z,34.88
2022-10-20T18:11:43.827Z,32.72
2022-10-20T18:14:10.674Z,31.25
2022-10-20T18:16:39.517Z,30.45
2022-10-20T18:19:08.067Z,31.38
2022-10-20T18:21:34.928Z,29.77
2022-10-20T18:24:05.117Z,33.40
2022-10-20T18:26:34.416Z,34.25
2022-10-20T18:29:01.906Z,26.60
2022-10-20T18:31:31.380Z,26.83
2022-10-20T18:34:04.203Z,31.83
2022-10-20T18:36:36.926Z,26.05
2022-10-20T18:39:06.756Z,33.00
2022-10-20T18:41:37.923Z,30.00
2022-10-20T18:44:11.964Z,28.35
2022-10-20T18:46:39.439Z,29.65
2022-10-20T18:49:07.550Z,26.52
2022-10-20T18:51:35.970Z,29.83
2022-10-20T18:54:04.393Z,26.43
2022-10-20T18:56:31.622Z,28.92
2022-10-20T18:59:03.584Z,27.48
2022-10-20T19:01:33.653Z,33.03
2022-10-20T19:04:01.406Z,38.42
2022-10-20T19:06:35.067Z,29.90
2022-10-20T19:09:10.650Z,32.40
2022-10-20T19:11:39.518Z,29.05
2022-10-20T19:14:09.427Z,33.00
2022-10-20T19:16:37.147Z,32.42
2022-10-20T19:19:07.449Z,30.40
2022-10-20T19:21:35.182Z,32.22
2022-10-20T19:24:11.530Z,34.75
2022-10-20T19:27:25.196Z,26.58
2022-10-20T19:29:48.724Z,32.28
2022-10-20T19:32:15.418Z,34.03
2022-10-20T19:34:42.526Z,32.80
2022-10-20T19:37:09.832Z,31.98
2022-10-20T19:39:39.796Z,32.85
2022-10-20T19:42:08.106Z,34.65
2022-10-20T19:44:35.605Z,31.45
2022-10-20T19:47:02.539Z,33.58
2022-10-20T19:49:29.355Z,34.72
2022-10-20T19:51:56.296Z,34.92
2022-10-20T19:54:23.225Z,30.67
2022-10-20T19:56:50.004Z,30.55
2022-10-20T19:59:16.683Z,36.65
2022-10-20T20:01:43.553Z,35.72
2022-10-20T20:04:10.792Z,28.10
2022-10-20T20:06:37.793Z,30.25
2022-10-20T20:09:07.366Z,36.83
2022-10-20T20:11:36.425Z,38.22
2022-10-20T20:14:15.587Z,31.30
2022-10-20T20:19:17.345Z,33.72
2022-10-20T20:21:44.463Z,30.17
2022-10-20T20:24:12.572Z,36.85
2022-10-20T20:26:39.289Z,35.05
2022-10-20T20:29:06.276Z,35.80
2022-10-20T20:31:33.527Z,35.78
2022-10-20T20:34:00.379Z,31.58
2022-10-20T20:36:28.124Z,37.70
2022-10-20T20:38:59.187Z,33.90
2022-10-20T20:41:28.507Z,34.10
2022-10-20T20:43:55.345Z,33.80
2022-10-20T20:46:23.388Z,39.03
2022-10-20T20:48:51.258Z,35.60
2022-10-20T20:51:18.348Z,39.92
2022-10-20T20:53:45.124Z,33.65
2022-10-20T20:56:15.165Z,37.30
2022-10-20T20:58:45.039Z,29.55
2022-10-20T21:01:18.972Z,37.70
2022-10-20T21:03:46.400Z,37.35
2022-10-20T21:06:15.856Z,34.42
2022-10-20T21:08:46.294Z,33.25
2022-10-20T21:11:15.131Z,32.20
2022-10-20T21:13:43.012Z,32.92
2022-10-20T21:16:31.772Z,34.40
2022-10-20T21:19:01.428Z,34.67
2022-10-20T21:21:30.695Z,33.75
2022-10-20T21:23:58.409Z,36.92
2022-10-20T21:26:26.173Z,34.45
2022-10-20T21:28:53.155Z,33.75
2022-10-20T21:31:22.869Z,34.40
2022-10-20T21:33:54.884Z,36.40
2022-10-20T21:36:22.836Z,33.75
2022-10-20T21:38:50.213Z,32.15
2022-10-20T21:41:19.616Z,43.90
2022-10-20T21:43:48.956Z,29.08
2022-10-20T21:46:17.209Z,33.70
2022-10-20T21:48:46.359Z,30.77
2022-10-20T21:51:22.876Z,31.20
2022-10-20T21:53:50.149Z,32.50
2022-10-20T21:56:16.815Z,32.13
2022-10-20T21:58:43.643Z,33.40
2022-10-20T22:01:20.277Z,29.30
2022-10-20T22:03:48.389Z,33.05
2022-10-20T22:06:17.464Z,27.67
2022-10-20T22:08:47.139Z,36.40
2022-10-20T22:11:18.005Z,33.88
2022-10-20T22:13:46.236Z,31.90
2022-10-20T22:16:15.476Z,33.17
2022-10-20T22:18:42.169Z,34.40
2022-10-20T22:21:17.000Z,38.65
2022-10-20T22:23:44.843Z,34.42
2022-10-20T22:26:12.469Z,31.08
2022-10-20T22:28:39.418Z,31.85
2022-10-20T22:31:07.421Z,34.53
2022-10-20T22:33:34.726Z,33.50
2022-10-20T22:36:01.857Z,34.20
2022-10-20T22:38:28.554Z,39.28
2022-10-20T22:41:00.076Z,29.95
2022-10-20T22:43:28.256Z,33.33
2022-10-20T22:45:55.873Z,33.60
2022-10-20T22:48:23.135Z,37.42
2022-10-20T22:50:50.138Z,32.25
2022-10-20T22:53:17.112Z,35.95
2022-10-20T22:55:44.007Z,31.52
2022-10-20T22:58:10.837Z,40.50
2022-10-20T23:00:40.965Z,35.28
2022-10-20T23:03:07.769Z,35.58
2022-10-20T23:05:34.548Z,33.50
2022-10-20T23:08:01.239Z,48.20
2022-10-20T23:10:28.364Z,38.33
2022-10-20T23:12:55.031Z,41.60
2022-10-20T23:15:21.759Z,41.53
2022-10-20T23:17:48.490Z,42.53
2022-10-20T23:20:15.424Z,38.30
2022-10-20T23:22:42.021Z,38.15
2022-10-20T23:25:08.927Z,35.90
2022-10-20T23:27:36.540Z,42.78
2022-10-20T23:30:03.895Z,43.50
2022-10-20T23:32:30.722Z,39.03
2022-10-20T23:34:57.497Z,43.15
2022-10-20T23:37:24.187Z,42.40
2022-10-20T23:39:50.926Z,39.75
2022-10-20T23:42:17.725Z,36.40
2022-10-20T23:44:44.496Z,39.00
2022-10-20T23:47:11.182Z,43.70
2022-10-20T23:49:40.162Z,43.45
2022-10-20T23:52:06.858Z,37.65
2022-10-20T23:54:33.837Z,40.67
2022-10-20T23:57:01.344Z,38.33
2022-10-20T23:59:28.101Z,40.10
